createdAt,value
2023-08-10T00:00:02.223Z,3.35
2023-08-10T00:00:17.498Z,3.47
2023-08-10T00:00:51.230Z,3.15
2023-08-10T00:01:19.247Z,3.20
2023-08-10T00:01:31.949Z,3.15
2023-08-10T00:01:44.733Z,3.20
2023-08-10T00:01:57.346Z,3.10
2023-08-10T00:02:09.946Z,2.90
2023-08-10T00:02:22.495Z,2.95
2023-08-10T00:02:35.029Z,3.08
2023-08-10T00:02:48.656Z,3.20
2023-08-10T00:03:01.388Z,3.30
2023-08-10T00:03:14.052Z,3.20
2023-08-10T00:03:26.769Z,3.30
2023-08-10T00:03:39.738Z,3.30
2023-08-10T00:03:52.471Z,3.20
2023-08-10T00:04:05.417Z,3.10
2023-08-10T00:04:17.957Z,3.22
2023-08-10T00:04:30.756Z,3.20
2023-08-10T00:04:44.324Z,3.30
2023-08-10T00:04:56.836Z,3.42
2023-08-10T00:05:10.923Z,3.13
2023-08-10T00:05:23.507Z,3.00
2023-08-10T00:05:36.206Z,3.10
2023-08-10T00:05:48.768Z,2.92
2023-08-10T00:06:01.311Z,2.70
2023-08-10T00:06:13.901Z,2.97
2023-08-10T00:06:27.558Z,3.30
2023-08-10T00:06:40.636Z,3.10
2023-08-10T00:06:53.291Z,2.95
2023-08-10T00:07:06.047Z,2.92
2023-08-10T00:07:19.445Z,2.90
2023-08-10T00:07:32.054Z,3.00
2023-08-10T00:07:44.687Z,2.85
2023-08-10T00:07:58.324Z,3.05
2023-08-10T00:08:11.198Z,2.95
2023-08-10T00:08:23.849Z,3.00
2023-08-10T00:08:36.698Z,2.95
2023-08-10T00:08:51.187Z,3.00
2023-08-10T00:09:03.968Z,2.97
2023-08-10T00:09:16.743Z,2.80
2023-08-10T00:09:29.332Z,3.03
2023-08-10T00:09:42.915Z,3.05
2023-08-10T00:09:55.488Z,3.05
2023-08-10T00:10:09.843Z,3.03
2023-08-10T00:10:22.470Z,3.10
2023-08-10T00:10:35.127Z,3.25
2023-08-10T00:10:48.865Z,3.17
2023-08-10T00:11:02.832Z,2.85
2023-08-10T00:11:15.404Z,2.70
2023-08-10T00:11:28.083Z,2.72
2023-08-10T00:11:41.846Z,2.70
2023-08-10T00:11:54.426Z,2.70
2023-08-10T00:12:07.877Z,2.70
2023-08-10T00:12:20.855Z,2.80
2023-08-10T00:12:33.453Z,2.90
2023-08-10T00:12:46.062Z,2.78
2023-08-10T00:12:58.686Z,2.67
2023-08-10T00:13:12.282Z,2.75
2023-08-10T00:13:24.877Z,2.83
2023-08-10T00:13:37.989Z,2.90
2023-08-10T00:13:50.601Z,2.80
2023-08-10T00:14:04.610Z,2.63
2023-08-10T00:14:17.221Z,2.53
2023-08-10T00:14:29.855Z,2.60
2023-08-10T00:14:42.654Z,2.78
2023-08-10T00:14:55.249Z,2.85
2023-08-10T00:15:08.334Z,2.75
2023-08-10T00:15:21.905Z,2.70
2023-08-10T00:15:34.546Z,2.80
2023-08-10T00:15:47.188Z,2.95
2023-08-10T00:15:59.747Z,3.03
2023-08-10T00:16:12.646Z,2.85
2023-08-10T00:16:25.291Z,2.75
2023-08-10T00:16:37.947Z,2.90
2023-08-10T00:16:51.543Z,2.83
2023-08-10T00:17:04.783Z,2.75
2023-08-10T00:17:18.096Z,2.70
2023-08-10T00:17:31.742Z,2.67
2023-08-10T00:17:44.432Z,2.60
2023-08-10T00:17:57.387Z,2.72
2023-08-10T00:18:10.405Z,2.83
2023-08-10T00:18:23.189Z,2.80
2023-08-10T00:18:35.845Z,2.70
2023-08-10T00:18:48.513Z,2.60
2023-08-10T00:19:02.210Z,2.50
2023-08-10T00:19:15.849Z,2.67
2023-08-10T00:19:28.433Z,2.78
2023-08-10T00:19:41.008Z,2.60
2023-08-10T00:19:53.613Z,2.50
2023-08-10T00:20:09.493Z,2.60
2023-08-10T00:20:22.076Z,2.92
2023-08-10T00:20:34.677Z,2.92
2023-08-10T00:20:47.591Z,2.88
2023-08-10T00:21:00.875Z,2.70
2023-08-10T00:21:14.495Z,2.78
2023-08-10T00:21:27.100Z,2.72
2023-08-10T00:21:39.863Z,2.70
2023-08-10T00:21:52.468Z,2.70
2023-08-10T00:22:05.322Z,2.75
2023-08-10T00:22:18.162Z,2.67
2023-08-10T00:22:30.739Z,2.60
2023-08-10T00:22:43.311Z,2.58
2023-08-10T00:22:57.384Z,2.53
2023-08-10T00:23:10.054Z,2.63
2023-08-10T00:23:22.635Z,2.70
2023-08-10T00:23:35.202Z,2.60
2023-08-10T00:23:47.799Z,2.60
2023-08-10T00:24:00.636Z,2.60
2023-08-10T00:24:13.219Z,2.60
2023-08-10T00:24:25.824Z,2.63
2023-08-10T00:24:39.996Z,2.85
2023-08-10T00:24:52.997Z,2.90
2023-08-10T00:25:06.610Z,2.75
2023-08-10T00:25:19.330Z,2.60
2023-08-10T00:25:31.897Z,2.53
2023-08-10T00:25:44.449Z,2.53
2023-08-10T00:25:57.026Z,2.45
2023-08-10T00:26:10.949Z,2.42
2023-08-10T00:26:24.772Z,2.40
2023-08-10T00:26:37.326Z,2.30
2023-08-10T00:26:50.007Z,2.42
2023-08-10T00:27:02.643Z,2.53
2023-08-10T00:27:15.523Z,2.58
2023-08-10T00:27:28.102Z,2.40
2023-08-10T00:27:40.727Z,2.60
2023-08-10T00:27:54.625Z,2.67
2023-08-10T00:28:07.471Z,2.60
2023-08-10T00:28:21.039Z,2.65
2023-08-10T00:28:34.259Z,2.63
2023-08-10T00:28:46.915Z,2.50
2023-08-10T00:28:59.703Z,2.38
2023-08-10T00:29:12.304Z,2.60
2023-08-10T00:29:25.138Z,2.60
2023-08-10T00:29:37.751Z,2.45
2023-08-10T00:29:50.377Z,2.50
2023-08-10T00:30:04.131Z,2.60
2023-08-10T00:30:16.943Z,2.53
2023-08-10T00:30:29.654Z,2.70
2023-08-10T00:30:42.328Z,2.70
2023-08-10T00:30:55.032Z,2.60
2023-08-10T00:31:09.277Z,2.50
2023-08-10T00:31:22.013Z,2.50
2023-08-10T00:31:34.826Z,2.45
2023-08-10T00:31:47.622Z,2.45
2023-08-10T00:32:01.444Z,2.50
2023-08-10T00:32:14.181Z,2.78
2023-08-10T00:32:26.824Z,3.05
2023-08-10T00:32:39.684Z,2.97
2023-08-10T00:32:52.370Z,2.67
2023-08-10T00:33:05.735Z,2.70
2023-08-10T00:33:31.658Z,2.60
2023-08-10T00:33:49.372Z,2.58
2023-08-10T00:34:02.410Z,2.80
2023-08-10T00:34:15.037Z,2.67
2023-08-10T00:34:27.745Z,2.50
2023-08-10T00:34:40.325Z,2.50
2023-08-10T00:34:53.205Z,2.47
2023-08-10T00:35:06.572Z,2.47
2023-08-10T00:35:19.437Z,2.47
2023-08-10T00:35:32.490Z,2.50
2023-08-10T00:35:46.318Z,2.50
2023-08-10T00:36:00.314Z,2.58
2023-08-10T00:36:12.879Z,2.60
2023-08-10T00:36:25.483Z,2.60
2023-08-10T00:36:38.069Z,2.60
2023-08-10T00:36:50.702Z,2.60
2023-08-10T00:37:03.892Z,2.63
2023-08-10T00:37:16.654Z,2.45
2023-08-10T00:37:30.245Z,2.40
2023-08-10T00:37:42.849Z,2.67
2023-08-10T00:37:56.069Z,2.78
2023-08-10T00:38:08.666Z,2.67
2023-08-10T00:38:21.241Z,2.42
2023-08-10T00:38:34.301Z,2.40
2023-08-10T00:38:47.449Z,2.47
2023-08-10T00:39:01.008Z,2.55
2023-08-10T00:39:13.667Z,2.50
2023-08-10T00:39:26.235Z,2.45
2023-08-10T00:39:39.086Z,2.58
2023-08-10T00:39:51.661Z,2.50
2023-08-10T00:40:04.995Z,2.38
2023-08-10T00:40:17.765Z,2.20
2023-08-10T00:40:30.331Z,2.30
2023-08-10T00:40:42.957Z,2.25
2023-08-10T00:40:55.598Z,2.38
2023-08-10T00:41:09.861Z,2.42
2023-08-10T00:41:24.131Z,2.58
2023-08-10T00:41:36.770Z,2.28
2023-08-10T00:41:50.081Z,2.35
2023-08-10T00:42:04.050Z,2.55
2023-08-10T00:42:16.949Z,2.42
2023-08-10T00:42:29.502Z,2.40
2023-08-10T00:42:42.119Z,2.50
2023-08-10T00:42:59.164Z,2.60
2023-08-10T00:43:12.025Z,2.53
2023-08-10T00:43:25.583Z,2.55
2023-08-10T00:43:38.634Z,2.33
2023-08-10T00:43:51.318Z,2.40
2023-08-10T00:44:04.919Z,2.50
2023-08-10T00:44:19.006Z,2.50
2023-08-10T00:44:31.598Z,2.40
2023-08-10T00:44:44.639Z,2.25
2023-08-10T00:44:58.197Z,2.30
2023-08-10T00:45:11.117Z,2.40
2023-08-10T00:45:23.700Z,2.33
2023-08-10T00:45:36.311Z,2.30
2023-08-10T00:45:48.929Z,2.40
2023-08-10T00:46:02.452Z,2.47
2023-08-10T00:46:15.555Z,2.50
2023-08-10T00:46:28.302Z,2.50
2023-08-10T00:46:41.000Z,2.30
2023-08-10T00:46:53.651Z,2.30
2023-08-10T00:47:08.359Z,2.40
2023-08-10T00:47:21.134Z,2.40
2023-08-10T00:47:34.253Z,2.40
2023-08-10T00:47:46.900Z,2.47
2023-08-10T00:47:59.980Z,2.50
2023-08-10T00:48:12.625Z,2.60
2023-08-10T00:48:26.721Z,2.42
2023-08-10T00:48:39.355Z,2.35
2023-08-10T00:48:53.320Z,2.50
2023-08-10T00:49:06.116Z,2.40
2023-08-10T00:49:18.732Z,2.40
2023-08-10T00:49:32.289Z,2.38
2023-08-10T00:49:44.901Z,2.40
2023-08-10T00:49:57.498Z,2.30
2023-08-10T00:50:11.196Z,2.25
2023-08-10T00:50:24.392Z,2.33
2023-08-10T00:50:36.931Z,2.47
2023-08-10T00:50:50.390Z,2.50
2023-08-10T00:51:04.088Z,2.55
2023-08-10T00:51:16.973Z,2.50
2023-08-10T00:51:30.026Z,2.38
2023-08-10T00:51:42.606Z,2.30
2023-08-10T00:51:55.195Z,2.30
2023-08-10T00:52:08.194Z,2.35
2023-08-10T00:52:20.841Z,2.50
2023-08-10T00:52:34.919Z,2.50
2023-08-10T00:52:49.236Z,2.28
2023-08-10T00:53:02.958Z,2.25
2023-08-10T00:53:17.484Z,2.35
2023-08-10T00:53:30.467Z,2.40
2023-08-10T00:53:43.092Z,2.28
2023-08-10T00:53:55.760Z,2.10
2023-08-10T00:54:08.456Z,2.28
2023-08-10T00:54:21.067Z,2.50
2023-08-10T00:54:33.998Z,2.60
2023-08-10T00:54:46.796Z,2.80
2023-08-10T00:55:00.578Z,2.70
2023-08-10T00:55:13.439Z,2.38
2023-08-10T00:55:26.455Z,2.38
2023-08-10T00:55:39.233Z,2.40
2023-08-10T00:55:54.980Z,2.20
2023-08-10T00:56:09.438Z,2.17
2023-08-10T00:56:23.949Z,2.30
2023-08-10T00:56:37.489Z,2.22
2023-08-10T00:56:51.707Z,2.28
2023-08-10T00:57:04.879Z,2.40
2023-08-10T00:57:17.512Z,2.40
2023-08-10T00:57:30.579Z,2.50
2023-08-10T00:57:43.264Z,2.70
2023-08-10T00:57:55.961Z,2.63
2023-08-10T00:58:08.541Z,2.35
2023-08-10T00:58:23.626Z,2.20
2023-08-10T00:58:36.589Z,2.38
2023-08-10T00:58:51.262Z,2.40
2023-08-10T00:59:04.382Z,2.30
2023-08-10T00:59:17.171Z,2.40
2023-08-10T00:59:32.053Z,2.60
2023-08-10T00:59:46.225Z,2.60
2023-08-10T00:59:59.606Z,2.50
2023-08-10T01:00:13.898Z,2.50
2023-08-10T01:00:29.153Z,2.42
2023-08-10T01:00:41.785Z,2.30
2023-08-10T01:00:54.335Z,2.40
2023-08-10T01:01:10.060Z,2.50
2023-08-10T01:01:22.638Z,2.50
2023-08-10T01:01:35.934Z,2.40
2023-08-10T01:01:48.623Z,2.45
2023-08-10T01:02:01.415Z,2.58
2023-08-10T01:02:15.034Z,2.35
2023-08-10T01:02:28.435Z,2.30
2023-08-10T01:02:41.684Z,2.50
2023-08-10T01:02:54.792Z,2.50
2023-08-10T01:03:07.799Z,2.40
2023-08-10T01:03:20.720Z,2.30
2023-08-10T01:03:33.501Z,2.30
2023-08-10T01:03:47.210Z,2.38
2023-08-10T01:04:00.210Z,2.60
2023-08-10T01:04:13.376Z,2.45
2023-08-10T01:04:25.969Z,2.30
2023-08-10T01:04:38.533Z,2.38
2023-08-10T01:04:51.214Z,2.40
2023-08-10T01:05:04.256Z,2.30
2023-08-10T01:05:17.162Z,2.33
2023-08-10T01:05:35.325Z,2.30
2023-08-10T01:05:56.707Z,2.40
2023-08-10T01:06:17.370Z,2.45
2023-08-10T01:06:38.544Z,2.40
2023-08-10T01:06:59.422Z,2.40
2023-08-10T01:07:20.818Z,2.60
2023-08-10T01:07:43.219Z,2.65
2023-08-10T01:08:01.955Z,2.30
2023-08-10T01:08:27.237Z,2.22
2023-08-10T01:08:48.762Z,2.28
2023-08-10T01:09:11.360Z,2.20
2023-08-10T01:09:29.902Z,2.28
2023-08-10T01:09:50.835Z,2.53
2023-08-10T01:10:11.568Z,2.58
2023-08-10T01:10:34.987Z,2.63
2023-08-10T01:10:56.824Z,2.70
2023-08-10T01:11:18.164Z,2.20
2023-08-10T01:11:40.921Z,2.60
2023-08-10T01:12:00.183Z,2.53
2023-08-10T01:12:21.430Z,2.40
2023-08-10T01:12:39.700Z,2.30
2023-08-10T01:12:58.847Z,2.40
2023-08-10T01:13:20.510Z,2.35
2023-08-10T01:13:40.371Z,2.20
2023-08-10T01:14:04.375Z,2.53
2023-08-10T01:14:26.788Z,2.30
2023-08-10T01:14:43.587Z,2.35
2023-08-10T01:15:03.185Z,2.50
2023-08-10T01:15:21.641Z,2.53
2023-08-10T01:15:40.047Z,2.30
2023-08-10T01:15:56.186Z,2.30
2023-08-10T01:16:11.274Z,2.38
2023-08-10T01:16:24.492Z,2.30
2023-08-10T01:16:40.812Z,2.30
2023-08-10T01:16:56.361Z,2.47
2023-08-10T01:17:15.379Z,2.80
2023-08-10T01:17:31.655Z,2.88
2023-08-10T01:17:49.470Z,2.58
2023-08-10T01:18:06.629Z,2.40
2023-08-10T01:18:26.467Z,2.50
2023-08-10T01:18:42.930Z,2.55
2023-08-10T01:18:57.944Z,2.50
2023-08-10T01:19:22.995Z,2.50
2023-08-10T01:19:37.725Z,2.40
2023-08-10T01:19:53.657Z,2.40
2023-08-10T01:20:08.885Z,2.50
2023-08-10T01:20:23.292Z,2.58
2023-08-10T01:20:36.566Z,2.40
2023-08-10T01:20:49.980Z,2.30
2023-08-10T01:21:09.426Z,2.30
2023-08-10T01:21:30.554Z,2.30
2023-08-10T01:21:51.866Z,2.42
2023-08-10T01:22:17.612Z,2.38
2023-08-10T01:22:40.251Z,2.40
2023-08-10T01:23:01.930Z,2.40
2023-08-10T01:23:24.903Z,2.50
2023-08-10T01:23:41.935Z,2.35
2023-08-10T01:23:56.973Z,2.40
2023-08-10T01:24:17.353Z,2.55
2023-08-10T01:24:34.054Z,2.50
2023-08-10T01:24:59.261Z,2.47
2023-08-10T01:25:13.881Z,2.42
2023-08-10T01:25:26.987Z,2.53
2023-08-10T01:25:41.222Z,2.50
2023-08-10T01:25:54.246Z,2.40
2023-08-10T01:26:07.990Z,2.60
2023-08-10T01:26:21.053Z,2.55
2023-08-10T01:26:34.399Z,2.42
2023-08-10T01:26:48.914Z,2.45
2023-08-10T01:27:03.234Z,2.50
2023-08-10T01:27:17.040Z,2.55
2023-08-10T01:27:30.442Z,2.50
2023-08-10T01:27:44.859Z,2.30
2023-08-10T01:27:57.774Z,2.50
2023-08-10T01:28:13.971Z,2.70
2023-08-10T01:28:28.264Z,2.50
2023-08-10T01:28:42.654Z,2.30
2023-08-10T01:28:56.179Z,2.30
2023-08-10T01:29:10.915Z,2.50
2023-08-10T01:29:24.748Z,2.40
2023-08-10T01:29:38.117Z,2.38
2023-08-10T01:29:50.675Z,2.40
2023-08-10T01:30:05.298Z,2.30
2023-08-10T01:30:18.186Z,2.40
2023-08-10T01:30:31.268Z,2.50
2023-08-10T01:30:45.582Z,2.22
2023-08-10T01:30:58.331Z,2.20
2023-08-10T01:31:11.655Z,2.30
2023-08-10T01:31:24.293Z,2.35
2023-08-10T01:31:36.972Z,2.40
2023-08-10T01:31:49.988Z,2.50
2023-08-10T01:32:03.218Z,2.40
2023-08-10T01:32:16.234Z,2.40
2023-08-10T01:32:30.965Z,2.50
2023-08-10T01:32:43.697Z,2.55
2023-08-10T01:32:56.344Z,2.55
2023-08-10T01:33:09.673Z,2.50
2023-08-10T01:33:22.189Z,2.60
2023-08-10T01:33:34.776Z,2.70
2023-08-10T01:33:47.269Z,2.58
2023-08-10T01:33:59.973Z,2.50
2023-08-10T01:34:12.496Z,2.47
2023-08-10T01:34:26.018Z,2.50
2023-08-10T01:34:38.502Z,2.30
2023-08-10T01:34:51.930Z,2.40
2023-08-10T01:35:06.720Z,2.33
2023-08-10T01:35:19.319Z,2.40
2023-08-10T01:35:31.894Z,2.53
2023-08-10T01:35:45.797Z,2.40
2023-08-10T01:35:58.325Z,2.30
2023-08-10T01:36:10.915Z,2.38
2023-08-10T01:36:23.415Z,2.35
2023-08-10T01:36:35.949Z,2.42
2023-08-10T01:36:49.509Z,2.72
2023-08-10T01:37:02.062Z,2.80
2023-08-10T01:37:14.735Z,2.60
2023-08-10T01:37:27.714Z,2.55
2023-08-10T01:37:40.851Z,2.53
2023-08-10T01:37:53.949Z,2.50
2023-08-10T01:38:06.692Z,2.53
2023-08-10T01:38:19.553Z,2.47
2023-08-10T01:38:33.087Z,2.55
2023-08-10T01:38:47.431Z,2.50
2023-08-10T01:38:59.937Z,2.80
2023-08-10T01:39:12.492Z,2.90
2023-08-10T01:39:24.993Z,2.70
2023-08-10T01:39:37.920Z,2.58
2023-08-10T01:39:50.624Z,2.45
2023-08-10T01:40:08.150Z,2.38
2023-08-10T01:40:22.106Z,2.30
2023-08-10T01:40:34.690Z,2.40
2023-08-10T01:40:48.875Z,2.30
2023-08-10T01:41:01.793Z,2.35
2023-08-10T01:41:14.338Z,2.72
2023-08-10T01:41:27.227Z,2.70
2023-08-10T01:41:39.787Z,2.58
2023-08-10T01:41:53.135Z,2.50
2023-08-10T01:42:06.457Z,2.40
2023-08-10T01:42:20.333Z,2.45
2023-08-10T01:42:33.118Z,2.40
2023-08-10T01:42:46.084Z,2.42
2023-08-10T01:42:58.832Z,2.50
2023-08-10T01:43:11.387Z,2.67
2023-08-10T01:43:23.896Z,2.50
2023-08-10T01:43:36.706Z,2.53
2023-08-10T01:43:49.202Z,2.47
2023-08-10T01:44:01.729Z,2.50
2023-08-10T01:44:15.341Z,2.50
2023-08-10T01:44:27.900Z,2.40
2023-08-10T01:44:40.616Z,2.40
2023-08-10T01:44:53.660Z,2.65
2023-08-10T01:45:07.234Z,2.80
2023-08-10T01:45:19.852Z,2.70
2023-08-10T01:45:32.537Z,2.50
2023-08-10T01:45:49.713Z,2.20
2023-08-10T01:46:02.528Z,2.20
2023-08-10T01:46:22.194Z,2.33
2023-08-10T01:46:38.463Z,2.45
2023-08-10T01:46:54.002Z,2.40
2023-08-10T01:47:12.291Z,2.35
2023-08-10T01:47:30.030Z,2.40
2023-08-10T01:47:49.489Z,2.65
2023-08-10T01:48:07.212Z,2.58
2023-08-10T01:48:23.796Z,2.15
2023-08-10T01:48:39.830Z,2.20
2023-08-10T01:48:56.213Z,2.50
2023-08-10T01:49:11.772Z,2.47
2023-08-10T01:49:25.505Z,2.35
2023-08-10T01:49:39.651Z,2.45
2023-08-10T01:49:56.773Z,2.45
2023-08-10T01:50:11.088Z,2.38
2023-08-10T01:50:27.676Z,2.50
2023-08-10T01:50:44.900Z,2.70
2023-08-10T01:50:58.836Z,2.60
2023-08-10T01:51:15.620Z,2.55
2023-08-10T01:51:30.640Z,2.60
2023-08-10T01:51:44.681Z,2.60
2023-08-10T01:51:59.041Z,2.60
2023-08-10T01:52:13.122Z,2.50
2023-08-10T01:52:30.474Z,2.40
2023-08-10T01:52:48.456Z,2.45
2023-08-10T01:53:06.870Z,2.47
2023-08-10T01:53:25.334Z,2.22
2023-08-10T01:53:39.698Z,2.33
2023-08-10T01:53:52.706Z,2.50
2023-08-10T01:54:07.805Z,2.60
2023-08-10T01:54:21.373Z,2.70
2023-08-10T01:54:37.442Z,2.70
2023-08-10T01:54:51.724Z,2.50
2023-08-10T01:55:08.423Z,2.50
2023-08-10T01:55:22.022Z,2.65
2023-08-10T01:55:35.261Z,2.67
2023-08-10T01:55:47.944Z,2.67
2023-08-10T01:56:01.458Z,2.40
2023-08-10T01:56:15.091Z,2.30
2023-08-10T01:56:28.720Z,2.65
2023-08-10T01:56:41.530Z,2.60
2023-08-10T01:56:54.126Z,2.35
2023-08-10T01:57:07.488Z,2.40
2023-08-10T01:57:20.213Z,2.35
2023-08-10T01:57:33.093Z,2.33
2023-08-10T01:57:46.040Z,2.30
2023-08-10T01:58:00.270Z,2.25
2023-08-10T01:58:13.012Z,2.40
2023-08-10T01:58:25.939Z,2.50
2023-08-10T01:58:38.641Z,2.50
2023-08-10T01:58:51.279Z,3.00
2023-08-10T01:59:03.820Z,2.97
2023-08-10T01:59:16.720Z,2.83
2023-08-10T01:59:29.294Z,2.20
2023-08-10T01:59:43.031Z,2.20
2023-08-10T01:59:55.650Z,2.20
2023-08-10T02:00:10.258Z,2.20
2023-08-10T02:00:22.879Z,2.45
2023-08-10T02:00:38.663Z,2.42
2023-08-10T02:00:52.528Z,2.50
2023-08-10T02:01:05.177Z,2.63
2023-08-10T02:01:17.783Z,2.65
2023-08-10T02:01:30.381Z,2.42
2023-08-10T02:01:44.012Z,2.60
2023-08-10T02:01:56.877Z,2.60
2023-08-10T02:02:09.414Z,2.45
2023-08-10T02:02:21.936Z,2.35
2023-08-10T02:02:34.613Z,2.38
2023-08-10T02:02:47.477Z,2.40
2023-08-10T02:03:00.134Z,2.30
2023-08-10T02:03:12.814Z,2.30
2023-08-10T02:03:25.642Z,2.50
2023-08-10T02:03:39.234Z,2.53
2023-08-10T02:03:52.452Z,2.50
2023-08-10T02:04:05.234Z,2.40
2023-08-10T02:04:18.236Z,2.33
2023-08-10T02:04:30.850Z,2.30
2023-08-10T02:04:43.413Z,2.20
2023-08-10T02:04:55.976Z,2.13
2023-08-10T02:05:11.545Z,2.60
2023-08-10T02:05:24.301Z,2.60
2023-08-10T02:05:37.819Z,2.50
2023-08-10T02:05:50.362Z,2.50
2023-08-10T02:06:03.710Z,2.40
2023-08-10T02:06:16.351Z,2.35
2023-08-10T02:06:28.947Z,2.40
2023-08-10T02:06:41.849Z,2.40
2023-08-10T02:06:54.596Z,2.38
2023-08-10T02:07:08.153Z,2.38
2023-08-10T02:07:21.087Z,2.40
2023-08-10T02:07:33.747Z,2.35
2023-08-10T02:07:50.084Z,2.22
2023-08-10T02:08:02.840Z,2.20
2023-08-10T02:08:15.501Z,2.30
2023-08-10T02:08:28.125Z,2.50
2023-08-10T02:08:41.733Z,2.55
2023-08-10T02:08:54.307Z,2.20
2023-08-10T02:09:06.893Z,2.10
2023-08-10T02:09:19.439Z,2.30
2023-08-10T02:09:33.304Z,2.35
2023-08-10T02:09:45.881Z,2.30
2023-08-10T02:09:59.067Z,2.20
2023-08-10T02:10:13.184Z,2.28
2023-08-10T02:10:26.828Z,2.50
2023-08-10T02:10:39.476Z,2.65
2023-08-10T02:10:52.075Z,2.50
2023-08-10T02:11:04.985Z,3.20
2023-08-10T02:11:17.614Z,3.33
2023-08-10T02:11:30.187Z,2.78
2023-08-10T02:11:42.799Z,2.20
2023-08-10T02:11:55.495Z,2.20
2023-08-10T02:12:08.722Z,2.22
2023-08-10T02:12:21.308Z,2.30
2023-08-10T02:12:34.892Z,2.40
2023-08-10T02:12:47.547Z,2.40
2023-08-10T02:13:00.924Z,2.20
2023-08-10T02:13:13.533Z,2.28
2023-08-10T02:13:26.210Z,2.25
2023-08-10T02:13:38.806Z,2.30
2023-08-10T02:13:52.040Z,2.47
2023-08-10T02:14:05.109Z,2.47
2023-08-10T02:14:17.694Z,2.35
2023-08-10T02:14:30.393Z,2.45
2023-08-10T02:14:43.954Z,2.72
2023-08-10T02:14:59.838Z,2.70
2023-08-10T02:15:13.767Z,2.83
2023-08-10T02:15:26.815Z,2.80
2023-08-10T02:15:39.472Z,2.63
2023-08-10T02:15:52.106Z,2.63
2023-08-10T02:16:05.108Z,2.60
2023-08-10T02:16:21.191Z,2.55
2023-08-10T02:16:33.774Z,2.60
2023-08-10T02:16:46.436Z,2.78
2023-08-10T02:16:59.997Z,2.55
2023-08-10T02:17:12.541Z,2.38
2023-08-10T02:17:25.336Z,2.45
2023-08-10T02:17:38.088Z,2.50
2023-08-10T02:17:50.662Z,2.40
2023-08-10T02:18:03.501Z,2.30
2023-08-10T02:18:16.196Z,2.50
2023-08-10T02:18:28.805Z,2.40
2023-08-10T02:18:42.926Z,2.40
2023-08-10T02:18:55.497Z,2.45
2023-08-10T02:19:08.105Z,2.60
2023-08-10T02:19:20.952Z,2.67
2023-08-10T02:19:33.576Z,2.60
2023-08-10T02:19:46.248Z,2.45
2023-08-10T02:19:58.842Z,2.30
2023-08-10T02:20:14.301Z,2.40
2023-08-10T02:20:27.034Z,2.40
2023-08-10T02:20:40.086Z,2.35
2023-08-10T02:20:52.685Z,2.40
2023-08-10T02:21:05.250Z,2.60
2023-08-10T02:21:17.898Z,2.50
2023-08-10T02:21:30.494Z,2.88
2023-08-10T02:21:43.185Z,3.00
2023-08-10T02:21:56.722Z,3.05
2023-08-10T02:22:09.281Z,2.58
2023-08-10T02:22:22.316Z,2.58
2023-08-10T02:22:34.926Z,2.63
2023-08-10T02:22:48.660Z,2.70
2023-08-10T02:23:01.268Z,2.50
2023-08-10T02:23:14.196Z,2.60
2023-08-10T02:23:26.767Z,2.85
2023-08-10T02:23:39.331Z,2.90
2023-08-10T02:23:53.243Z,3.10
2023-08-10T02:24:06.206Z,3.30
2023-08-10T02:24:18.765Z,3.47
2023-08-10T02:24:31.376Z,3.25
2023-08-10T02:24:44.014Z,3.20
2023-08-10T02:24:56.564Z,3.17
2023-08-10T02:25:10.129Z,3.10
2023-08-10T02:25:24.072Z,3.00
2023-08-10T02:25:37.748Z,3.10
2023-08-10T02:25:50.314Z,3.13
2023-08-10T02:26:02.960Z,3.15
2023-08-10T02:26:15.615Z,3.20
2023-08-10T02:26:28.244Z,2.97
2023-08-10T02:26:40.854Z,2.90
2023-08-10T02:26:53.416Z,3.10
2023-08-10T02:27:06.361Z,3.17
2023-08-10T02:27:19.281Z,3.20
2023-08-10T02:27:31.834Z,3.00
2023-08-10T02:27:45.583Z,3.05
2023-08-10T02:27:58.237Z,3.35
2023-08-10T02:28:11.314Z,3.63
2023-08-10T02:28:23.948Z,4.00
2023-08-10T02:28:36.696Z,3.92
2023-08-10T02:28:49.259Z,3.60
2023-08-10T02:29:01.835Z,3.50
2023-08-10T02:29:14.404Z,3.60
2023-08-10T02:29:27.941Z,3.63
2023-08-10T02:29:40.587Z,3.28
2023-08-10T02:29:53.173Z,2.85
2023-08-10T02:30:07.561Z,2.78
2023-08-10T02:30:20.930Z,3.10
2023-08-10T02:30:33.702Z,3.13
2023-08-10T02:30:46.403Z,3.17
2023-08-10T02:31:00.521Z,2.95
2023-08-10T02:31:13.173Z,2.70
2023-08-10T02:31:26.802Z,2.60
2023-08-10T02:31:39.435Z,2.70
2023-08-10T02:31:52.112Z,2.60
2023-08-10T02:32:05.148Z,2.50
2023-08-10T02:32:18.368Z,2.55
2023-08-10T02:32:31.038Z,2.75
2023-08-10T02:32:43.930Z,2.70
2023-08-10T02:32:56.708Z,2.80
2023-08-10T02:33:10.341Z,2.80
2023-08-10T02:33:23.211Z,2.83
2023-08-10T02:33:35.750Z,2.90
2023-08-10T02:33:48.936Z,3.00
2023-08-10T02:34:01.521Z,2.95
2023-08-10T02:34:14.219Z,2.92
2023-08-10T02:34:26.881Z,2.75
2023-08-10T02:34:39.473Z,2.67
2023-08-10T02:34:52.289Z,2.70
2023-08-10T02:35:05.744Z,2.60
2023-08-10T02:35:19.315Z,2.50
2023-08-10T02:35:31.912Z,2.65
2023-08-10T02:35:44.492Z,2.70
2023-08-10T02:35:57.081Z,2.78
2023-08-10T02:36:09.941Z,3.30
2023-08-10T02:36:22.513Z,3.28
2023-08-10T02:36:35.064Z,2.58
2023-08-10T02:36:47.636Z,2.60
2023-08-10T02:37:00.210Z,2.50
2023-08-10T02:37:13.823Z,2.53
2023-08-10T02:37:26.703Z,2.60
2023-08-10T02:37:39.341Z,2.50
2023-08-10T02:37:51.919Z,2.60
2023-08-10T02:38:04.667Z,2.88
2023-08-10T02:38:17.290Z,2.80
2023-08-10T02:38:29.966Z,2.92
2023-08-10T02:38:42.661Z,2.90
2023-08-10T02:38:55.504Z,2.80
2023-08-10T02:39:08.119Z,2.80
2023-08-10T02:39:21.723Z,2.60
2023-08-10T02:39:34.512Z,2.58
2023-08-10T02:39:47.148Z,2.60
2023-08-10T02:40:00.053Z,2.50
2023-08-10T02:40:13.148Z,2.50
2023-08-10T02:40:27.176Z,2.50
2023-08-10T02:40:39.779Z,2.67
2023-08-10T02:40:52.351Z,2.80
2023-08-10T02:41:05.878Z,2.72
2023-08-10T02:41:18.475Z,2.67
2023-08-10T02:41:32.027Z,2.60
2023-08-10T02:41:44.625Z,2.83
2023-08-10T02:41:57.300Z,2.80
2023-08-10T02:42:09.912Z,2.78
2023-08-10T02:42:22.550Z,2.75
2023-08-10T02:42:35.200Z,2.70
2023-08-10T02:42:47.769Z,2.63
2023-08-10T02:43:00.673Z,2.42
2023-08-10T02:43:14.236Z,2.45
2023-08-10T02:43:26.776Z,2.53
2023-08-10T02:43:39.362Z,2.55
2023-08-10T02:43:52.040Z,2.53
2023-08-10T02:44:05.127Z,2.67
2023-08-10T02:44:18.018Z,2.70
2023-08-10T02:44:30.592Z,2.40
2023-08-10T02:44:43.487Z,2.53
2023-08-10T02:44:56.057Z,2.75
2023-08-10T02:45:09.535Z,2.70
2023-08-10T02:45:23.136Z,2.72
2023-08-10T02:45:35.797Z,2.80
2023-08-10T02:45:48.441Z,2.80
2023-08-10T02:46:01.066Z,2.53
2023-08-10T02:46:13.756Z,2.47
2023-08-10T02:46:26.456Z,2.58
2023-08-10T02:46:39.045Z,2.60
2023-08-10T02:46:51.898Z,2.80
2023-08-10T02:47:04.537Z,2.67
2023-08-10T02:47:18.095Z,2.40
2023-08-10T02:47:30.769Z,2.50
2023-08-10T02:47:43.414Z,2.45
2023-08-10T02:47:56.069Z,2.55
2023-08-10T02:48:09.036Z,2.63
2023-08-10T02:48:22.077Z,2.70
2023-08-10T02:48:34.672Z,2.70
2023-08-10T02:48:47.261Z,2.60
2023-08-10T02:49:00.129Z,2.50
2023-08-10T02:49:13.973Z,2.50
2023-08-10T02:49:26.625Z,2.60
2023-08-10T02:49:39.930Z,2.67
2023-08-10T02:49:52.731Z,2.60
2023-08-10T02:50:07.060Z,2.75
2023-08-10T02:50:20.839Z,2.67
2023-08-10T02:50:33.485Z,2.50
2023-08-10T02:50:46.317Z,2.47
2023-08-10T02:51:00.224Z,2.45
2023-08-10T02:51:12.833Z,2.58
2023-08-10T02:51:25.473Z,2.78
2023-08-10T02:51:39.818Z,2.85
2023-08-10T02:51:52.378Z,2.85
2023-08-10T02:52:05.309Z,2.80
2023-08-10T02:52:18.078Z,2.55
2023-08-10T02:52:30.633Z,2.47
2023-08-10T02:52:43.186Z,2.60
2023-08-10T02:52:56.544Z,2.40
2023-08-10T02:53:10.104Z,2.55
2023-08-10T02:53:22.694Z,2.75
2023-08-10T02:53:35.244Z,2.63
2023-08-10T02:53:47.878Z,2.58
2023-08-10T02:54:00.435Z,2.70
2023-08-10T02:54:13.010Z,2.70
2023-08-10T02:54:25.553Z,2.63
2023-08-10T02:54:38.162Z,2.70
2023-08-10T02:54:51.791Z,2.55
2023-08-10T02:55:06.406Z,2.60
2023-08-10T02:55:19.004Z,2.80
2023-08-10T02:55:32.954Z,2.72
2023-08-10T02:55:45.541Z,2.45
2023-08-10T02:55:58.109Z,2.60
2023-08-10T02:56:10.682Z,2.72
2023-08-10T02:56:23.285Z,2.72
2023-08-10T02:56:35.879Z,2.60
2023-08-10T02:56:48.430Z,2.55
2023-08-10T02:57:00.977Z,2.40
2023-08-10T02:57:14.787Z,2.60
2023-08-10T02:57:27.391Z,3.03
2023-08-10T02:57:40.214Z,2.97
2023-08-10T02:57:52.829Z,2.58
2023-08-10T02:58:05.502Z,2.60
2023-08-10T02:58:18.111Z,2.60
2023-08-10T02:58:30.974Z,2.60
2023-08-10T02:58:43.965Z,2.50
2023-08-10T02:58:57.521Z,2.42
2023-08-10T02:59:10.101Z,2.40
2023-08-10T02:59:22.748Z,2.58
2023-08-10T02:59:35.337Z,2.60
2023-08-10T02:59:47.926Z,2.58
2023-08-10T03:00:01.221Z,2.53
2023-08-10T03:00:14.317Z,2.60
2023-08-10T03:00:27.936Z,2.70
2023-08-10T03:00:42.307Z,2.53
2023-08-10T03:00:55.063Z,2.55
2023-08-10T03:01:09.601Z,2.70
2023-08-10T03:01:22.381Z,2.60
2023-08-10T03:01:34.994Z,2.58
2023-08-10T03:01:47.620Z,2.67
2023-08-10T03:02:00.240Z,2.40
2023-08-10T03:02:17.592Z,2.22
2023-08-10T03:02:30.194Z,2.42
2023-08-10T03:02:43.083Z,2.55
2023-08-10T03:02:55.788Z,2.60